sensor_id;sensor_type;location;lat;lon;timestamp;temperature;humidity
41720;DHT22;27405;53.316;-6.294;2023-04-25T00:00:34;7.50;99.90
41720;DHT22;27405;53.316;-6.294;2023-04-25T00:03:00;7.50;99.90
41720;DHT22;27405;53.316;-6.294;2023-04-25T00:05:26;7.50;99.90
41720;DHT22;27405;53.316;-6.294;2023-04-25T00:07:52;7.50;99.90
41720;DHT22;27405;53.316;-6.294;2023-04-25T00:10:19;7.50;99.90
41720;DHT22;27405;53.316;-6.294;2023-04-25T00:12:44;7.60;99.90
41720;DHT22;27405;53.316;-6.294;2023-04-25T00:15:11;7.60;99.90
41720;DHT22;27405;53.316;-6.294;2023-04-25T00:17:37;7.60;99.90
41720;DHT22;27405;53.316;-6.294;2023-04-25T00:20:04;7.70;99.90
41720;DHT22;27405;53.316;-6.294;2023-04-25T00:22:30;7.60;99.90
41720;DHT22;27405;53.316;-6.294;2023-04-25T00:24:56;7.60;99.90
41720;DHT22;27405;53.316;-6.294;2023-04-25T00:27:25;7.60;99.90
41720;DHT22;27405;53.316;-6.294;2023-04-25T00:29:51;7.60;99.90
41720;DHT22;27405;53.316;-6.294;2023-04-25T00:32:17;7.50;99.90
41720;DHT22;27405;53.316;-6.294;2023-04-25T00:34:43;7.50;99.90
41720;DHT22;27405;53.316;-6.294;2023-04-25T00:37:08;7.50;99.90
41720;DHT22;27405;53.316;-6.294;2023-04-25T00:39:34;7.50;99.90
41720;DHT22;27405;53.316;-6.294;2023-04-25T00:42:01;7.50;99.90
41720;DHT22;27405;53.316;-6.294;2023-04-25T00:44:27;7.60;99.90
41720;DHT22;27405;53.316;-6.294;2023-04-25T00:46:55;7.50;99.90
41720;DHT22;27405;53.316;-6.294;2023-04-25T00:49:21;7.50;99.90
41720;DHT22;27405;53.316;-6.294;2023-04-25T00:51:46;7.50;99.90
41720;DHT22;27405;53.316;-6.294;2023-04-25T00:54:12;7.50;99.90
41720;DHT22;27405;53.316;-6.294;2023-04-25T00:56:39;7.50;99.90
41720;DHT22;27405;53.316;-6.294;2023-04-25T00:59:05;7.40;99.90
41720;DHT22;27405;53.316;-6.294;2023-04-25T01:01:31;7.40;99.90
41720;DHT22;27405;53.316;-6.294;2023-04-25T01:03:58;7.40;99.90
41720;DHT22;27405;53.316;-6.294;2023-04-25T01:06:24;7.40;99.90
41720;DHT22;27405;53.316;-6.294;2023-04-25T01:08:51;7.40;99.90
41720;DHT22;27405;53.316;-6.294;2023-04-25T01:11:17;7.30;99.90
41720;DHT22;27405;53.316;-6.294;2023-04-25T01:13:43;7.30;99.90
41720;DHT22;27405;53.316;-6.294;2023-04-25T01:16:08;7.30;99.90
41720;DHT22;27405;53.316;-6.294;2023-04-25T01:18:35;7.20;99.90
41720;DHT22;27405;53.316;-6.294;2023-04-25T01:21:11;7.20;99.90
41720;DHT22;27405;53.316;-6.294;2023-04-25T01:23:39;7.10;99.90
41720;DHT22;27405;53.316;-6.294;2023-04-25T01:26:06;7.10;99.90
41720;DHT22;27405;53.316;-6.294;2023-04-25T01:28:33;7.10;99.90
41720;DHT22;27405;53.316;-6.294;2023-04-25T01:31:00;7.10;99.90
41720;DHT22;27405;53.316;-6.294;2023-04-25T01:33:26;7.10;99.90
41720;DHT22;27405;53.316;-6.294;2023-04-25T01:35:52;7.10;99.90
41720;DHT22;27405;53.316;-6.294;2023-04-25T01:38:17;7.10;99.90
41720;DHT22;27405;53.316;-6.294;2023-04-25T01:40:45;7.10;99.90
41720;DHT22;27405;53.316;-6.294;2023-04-25T01:43:11;7.00;99.90
41720;DHT22;27405;53.316;-6.294;2023-04-25T01:45:43;7.00;99.90
41720;DHT22;27405;53.316;-6.294;2023-04-25T01:48:10;6.90;99.90
41720;DHT22;27405;53.316;-6.294;2023-04-25T01:50:38;6.80;99.90
41720;DHT22;27405;53.316;-6.294;2023-04-25T01:53:04;6.80;99.90
41720;DHT22;27405;53.316;-6.294;2023-04-25T01:55:30;6.70;99.90
41720;DHT22;27405;53.316;-6.294;2023-04-25T01:57:56;6.60;99.90
41720;DHT22;27405;53.316;-6.294;2023-04-25T02:00:22;6.60;99.90
41720;DHT22;27405;53.316;-6.294;2023-04-25T02:02:48;6.50;99.90
41720;DHT22;27405;53.316;-6.294;2023-04-25T02:05:16;6.40;99.90
41720;DHT22;27405;53.316;-6.294;2023-04-25T02:07:42;6.40;99.90
41720;DHT22;27405;53.316;-6.294;2023-04-25T02:10:09;6.30;99.90
41720;DHT22;27405;53.316;-6.294;2023-04-25T02:12:35;6.30;99.90
41720;DHT22;27405;53.316;-6.294;2023-04-25T02:15:01;6.30;99.90
41720;DHT22;27405;53.316;-6.294;2023-04-25T02:17:27;6.30;99.90
41720;DHT22;27405;53.316;-6.294;2023-04-25T02:19:52;6.20;99.90
41720;DHT22;27405;53.316;-6.294;2023-04-25T02:22:18;6.30;99.90
41720;DHT22;27405;53.316;-6.294;2023-04-25T02:24:44;6.20;99.90
41720;DHT22;27405;53.316;-6.294;2023-04-25T02:27:09;6.20;99.90
41720;DHT22;27405;53.316;-6.294;2023-04-25T02:29:35;6.30;99.90
41720;DHT22;27405;53.316;-6.294;2023-04-25T02:32:01;6.30;99.90
41720;DHT22;27405;53.316;-6.294;2023-04-25T02:34:27;6.40;99.90
41720;DHT22;27405;53.316;-6.294;2023-04-25T02:36:52;6.40;99.90
41720;DHT22;27405;53.316;-6.294;2023-04-25T02:39:18;6.40;99.90
41720;DHT22;27405;53.316;-6.294;2023-04-25T02:41:44;6.50;99.90
41720;DHT22;27405;53.316;-6.294;2023-04-25T02:44:10;6.50;99.90
41720;DHT22;27405;53.316;-6.294;2023-04-25T02:46:35;6.50;99.90
41720;DHT22;27405;53.316;-6.294;2023-04-25T02:49:01;6.50;99.90
41720;DHT22;27405;53.316;-6.294;2023-04-25T02:51:27;6.50;99.90
41720;DHT22;27405;53.316;-6.294;2023-04-25T02:53:52;6.50;99.90
41720;DHT22;27405;53.316;-6.294;2023-04-25T02:56:18;6.40;99.90
41720;DHT22;27405;53.316;-6.294;2023-04-25T02:58:44;6.40;99.90
41720;DHT22;27405;53.316;-6.294;2023-04-25T03:01:10;6.40;99.90
41720;DHT22;27405;53.316;-6.294;2023-04-25T03:03:36;6.30;99.90
41720;DHT22;27405;53.316;-6.294;2023-04-25T03:06:01;6.30;99.90
41720;DHT22;27405;53.316;-6.294;2023-04-25T03:08:27;6.20;99.90
41720;DHT22;27405;53.316;-6.294;2023-04-25T03:10:59;6.20;99.90
41720;DHT22;27405;53.316;-6.294;2023-04-25T03:13:26;6.10;99.90
41720;DHT22;27405;53.316;-6.294;2023-04-25T03:15:52;6.00;99.90
41720;DHT22;27405;53.316;-6.294;2023-04-25T03:18:19;6.00;99.90
41720;DHT22;27405;53.316;-6.294;2023-04-25T03:20:45;6.00;99.90
41720;DHT22;27405;53.316;-6.294;2023-04-25T03:23:12;5.90;99.90
41720;DHT22;27405;53.316;-6.294;2023-04-25T03:25:37;5.90;99.90
41720;DHT22;27405;53.316;-6.294;2023-04-25T03:28:03;5.80;99.90
41720;DHT22;27405;53.316;-6.294;2023-04-25T03:30:29;5.70;99.90
41720;DHT22;27405;53.316;-6.294;2023-04-25T03:32:54;5.70;99.90
41720;DHT22;27405;53.316;-6.294;2023-04-25T03:35:20;5.60;99.90
41720;DHT22;27405;53.316;-6.294;2023-04-25T03:37:46;5.60;99.90
41720;DHT22;27405;53.316;-6.294;2023-04-25T03:40:12;5.50;99.90
41720;DHT22;27405;53.316;-6.294;2023-04-25T03:42:37;5.50;99.90
41720;DHT22;27405;53.316;-6.294;2023-04-25T03:45:03;5.40;99.90
41720;DHT22;27405;53.316;-6.294;2023-04-25T03:47:29;5.40;99.90
41720;DHT22;27405;53.316;-6.294;2023-04-25T03:49:55;5.40;99.90
41720;DHT22;27405;53.316;-6.294;2023-04-25T03:52:20;5.40;99.90
41720;DHT22;27405;53.316;-6.294;2023-04-25T03:54:46;5.30;99.90
41720;DHT22;27405;53.316;-6.294;2023-04-25T03:57:12;5.30;99.90
41720;DHT22;27405;53.316;-6.294;2023-04-25T03:59:37;5.20;99.90
41720;DHT22;27405;53.316;-6.294;2023-04-25T04:02:03;5.20;99.90
41720;DHT22;27405;53.316;-6.294;2023-04-25T04:04:29;5.10;99.90
41720;DHT22;27405;53.316;-6.294;2023-04-25T04:06:55;5.10;99.90
41720;DHT22;27405;53.316;-6.294;2023-04-25T04:09:21;5.10;99.90
41720;DHT22;27405;53.316;-6.294;2023-04-25T04:11:47;5.10;99.90
41720;DHT22;27405;53.316;-6.294;2023-04-25T04:14:13;5.00;99.90
41720;DHT22;27405;53.316;-6.294;2023-04-25T04:16:38;5.00;99.90
41720;DHT22;27405;53.316;-6.294;2023-04-25T04:19:04;5.00;99.90
41720;DHT22;27405;53.316;-6.294;2023-04-25T04:21:30;5.00;99.90
41720;DHT22;27405;53.316;-6.294;2023-04-25T04:23:57;4.90;99.90
41720;DHT22;27405;53.316;-6.294;2023-04-25T04:26:23;4.90;99.90
41720;DHT22;27405;53.316;-6.294;2023-04-25T04:28:50;4.90;99.90
41720;DHT22;27405;53.316;-6.294;2023-04-25T04:31:22;4.90;99.90
41720;DHT22;27405;53.316;-6.294;2023-04-25T04:33:49;4.90;99.90
41720;DHT22;27405;53.316;-6.294;2023-04-25T04:36:15;4.90;99.90
41720;DHT22;27405;53.316;-6.294;2023-04-25T04:38:41;4.90;99.90
41720;DHT22;27405;53.316;-6.294;2023-04-25T04:41:08;4.80;99.90
41720;DHT22;27405;53.316;-6.294;2023-04-25T04:43:33;4.80;99.90
41720;DHT22;27405;53.316;-6.294;2023-04-25T04:46:02;4.80;99.90
41720;DHT22;27405;53.316;-6.294;2023-04-25T04:48:30;4.80;99.90
41720;DHT22;27405;53.316;-6.294;2023-04-25T04:50:58;4.70;99.90
41720;DHT22;27405;53.316;-6.294;2023-04-25T04:53:24;4.80;99.90
41720;DHT22;27405;53.316;-6.294;2023-04-25T04:55:49;4.70;99.90
41720;DHT22;27405;53.316;-6.294;2023-04-25T04:58:15;4.70;99.90
41720;DHT22;27405;53.316;-6.294;2023-04-25T05:00:41;4.60;99.90
41720;DHT22;27405;53.316;-6.294;2023-04-25T05:03:07;4.60;99.90
41720;DHT22;27405;53.316;-6.294;2023-04-25T05:05:32;4.60;99.90
41720;DHT22;27405;53.316;-6.294;2023-04-25T05:07:58;4.60;99.90
41720;DHT22;27405;53.316;-6.294;2023-04-25T05:10:24;4.60;99.90
41720;DHT22;27405;53.316;-6.294;2023-04-25T05:12:49;4.50;99.90
41720;DHT22;27405;53.316;-6.294;2023-04-25T05:15:16;4.50;99.90
41720;DHT22;27405;53.316;-6.294;2023-04-25T05:17:41;4.50;99.90
41720;DHT22;27405;53.316;-6.294;2023-04-25T05:20:07;4.50;99.90
41720;DHT22;27405;53.316;-6.294;2023-04-25T05:22:35;4.50;99.90
41720;DHT22;27405;53.316;-6.294;2023-04-25T05:25:01;4.50;99.90
41720;DHT22;27405;53.316;-6.294;2023-04-25T05:27:26;4.50;99.90
41720;DHT22;27405;53.316;-6.294;2023-04-25T05:29:52;4.50;99.90
41720;DHT22;27405;53.316;-6.294;2023-04-25T05:32:18;4.50;99.90
41720;DHT22;27405;53.316;-6.294;2023-04-25T05:34:43;4.50;99.90
41720;DHT22;27405;53.316;-6.294;2023-04-25T05:37:09;4.60;99.90
41720;DHT22;27405;53.316;-6.294;2023-04-25T05:39:35;4.60;99.90
41720;DHT22;27405;53.316;-6.294;2023-04-25T05:42:01;4.60;99.90
41720;DHT22;27405;53.316;-6.294;2023-04-25T05:44:27;4.60;99.90
41720;DHT22;27405;53.316;-6.294;2023-04-25T05:46:53;4.60;99.90
41720;DHT22;27405;53.316;-6.294;2023-04-25T05:49:19;4.60;99.90
41720;DHT22;27405;53.316;-6.294;2023-04-25T05:51:45;4.60;99.90
41720;DHT22;27405;53.316;-6.294;2023-04-25T05:54:10;4.60;99.90
41720;DHT22;27405;53.316;-6.294;2023-04-25T05:56:36;4.60;99.90
41720;DHT22;27405;53.316;-6.294;2023-04-25T05:59:02;4.70;99.90
41720;DHT22;27405;53.316;-6.294;2023-04-25T06:01:28;4.80;99.90
41720;DHT22;27405;53.316;-6.294;2023-04-25T06:03:54;4.80;99.90
41720;DHT22;27405;53.316;-6.294;2023-04-25T06:06:19;4.80;99.90
41720;DHT22;27405;53.316;-6.294;2023-04-25T06:08:45;4.90;99.90
41720;DHT22;27405;53.316;-6.294;2023-04-25T06:11:11;4.90;99.90
41720;DHT22;27405;53.316;-6.294;2023-04-25T06:13:37;5.00;99.90
41720;DHT22;27405;53.316;-6.294;2023-04-25T06:16:03;5.00;99.90
41720;DHT22;27405;53.316;-6.294;2023-04-25T06:18:28;5.00;99.90
41720;DHT22;27405;53.316;-6.294;2023-04-25T06:20:54;5.00;99.90
41720;DHT22;27405;53.316;-6.294;2023-04-25T06:23:19;5.00;99.90
41720;DHT22;27405;53.316;-6.294;2023-04-25T06:25:45;5.00;99.90
41720;DHT22;27405;53.316;-6.294;2023-04-25T06:28:11;5.00;99.90
41720;DHT22;27405;53.316;-6.294;2023-04-25T06:30:37;5.00;99.90
41720;DHT22;27405;53.316;-6.294;2023-04-25T06:33:03;5.10;99.90
41720;DHT22;27405;53.316;-6.294;2023-04-25T06:35:28;5.10;99.90
41720;DHT22;27405;53.316;-6.294;2023-04-25T06:37:54;5.10;99.90
41720;DHT22;27405;53.316;-6.294;2023-04-25T06:40:20;5.10;99.90
41720;DHT22;27405;53.316;-6.294;2023-04-25T06:42:45;5.20;99.90
41720;DHT22;27405;53.316;-6.294;2023-04-25T06:45:11;5.20;99.90
41720;DHT22;27405;53.316;-6.294;2023-04-25T06:47:37;5.20;99.90
41720;DHT22;27405;53.316;-6.294;2023-04-25T06:50:03;5.30;99.90
41720;DHT22;27405;53.316;-6.294;2023-04-25T06:52:28;5.30;99.90
41720;DHT22;27405;53.316;-6.294;2023-04-25T06:54:54;5.30;99.90
41720;DHT22;27405;53.316;-6.294;2023-04-25T06:57:20;5.30;99.90
41720;DHT22;27405;53.316;-6.294;2023-04-25T06:59:45;5.30;99.90
41720;DHT22;27405;53.316;-6.294;2023-04-25T07:02:11;5.40;99.90
41720;DHT22;27405;53.316;-6.294;2023-04-25T07:04:37;5.50;99.90
41720;DHT22;27405;53.316;-6.294;2023-04-25T07:07:03;5.50;99.90
41720;DHT22;27405;53.316;-6.294;2023-04-25T07:09:29;5.50;99.90
41720;DHT22;27405;53.316;-6.294;2023-04-25T07:11:55;5.60;99.90
41720;DHT22;27405;53.316;-6.294;2023-04-25T07:14:22;5.60;99.90
41720;DHT22;27405;53.316;-6.294;2023-04-25T07:16:47;5.70;99.90
41720;DHT22;27405;53.316;-6.294;2023-04-25T07:19:13;5.70;99.90
41720;DHT22;27405;53.316;-6.294;2023-04-25T07:21:39;5.80;99.90
41720;DHT22;27405;53.316;-6.294;2023-04-25T07:24:05;5.80;99.90
41720;DHT22;27405;53.316;-6.294;2023-04-25T07:26:31;5.90;99.90
41720;DHT22;27405;53.316;-6.294;2023-04-25T07:28:56;5.90;99.90
41720;DHT22;27405;53.316;-6.294;2023-04-25T07:31:22;6.00;99.90
41720;DHT22;27405;53.316;-6.294;2023-04-25T07:33:48;6.00;99.90
41720;DHT22;27405;53.316;-6.294;2023-04-25T07:36:14;6.00;99.90
41720;DHT22;27405;53.316;-6.294;2023-04-25T07:38:41;6.00;99.90
41720;DHT22;27405;53.316;-6.294;2023-04-25T07:41:06;6.10;99.90
41720;DHT22;27405;53.316;-6.294;2023-04-25T07:43:32;6.10;99.90
41720;DHT22;27405;53.316;-6.294;2023-04-25T07:45:58;6.20;99.90
41720;DHT22;27405;53.316;-6.294;2023-04-25T07:48:23;6.30;99.90
41720;DHT22;27405;53.316;-6.294;2023-04-25T07:50:49;6.40;99.90
41720;DHT22;27405;53.316;-6.294;2023-04-25T07:53:15;6.40;99.90
41720;DHT22;27405;53.316;-6.294;2023-04-25T07:55:41;6.50;99.90
41720;DHT22;27405;53.316;-6.294;2023-04-25T07:58:07;6.50;99.90
41720;DHT22;27405;53.316;-6.294;2023-04-25T08:00:33;6.60;99.90
41720;DHT22;27405;53.316;-6.294;2023-04-25T08:02:59;6.70;99.90
41720;DHT22;27405;53.316;-6.294;2023-04-25T08:05:24;6.80;99.90
41720;DHT22;27405;53.316;-6.294;2023-04-25T08:07:50;6.90;99.90
41720;DHT22;27405;53.316;-6.294;2023-04-25T08:10:16;7.00;99.90
41720;DHT22;27405;53.316;-6.294;2023-04-25T08:12:42;7.10;99.90
41720;DHT22;27405;53.316;-6.294;2023-04-25T08:15:08;7.20;99.90
41720;DHT22;27405;53.316;-6.294;2023-04-25T08:17:34;7.20;99.90
41720;DHT22;27405;53.316;-6.294;2023-04-25T08:20:00;7.40;99.90
41720;DHT22;27405;53.316;-6.294;2023-04-25T08:22:25;7.40;99.90
41720;DHT22;27405;53.316;-6.294;2023-04-25T08:24:51;7.50;99.90
41720;DHT22;27405;53.316;-6.294;2023-04-25T08:27:18;7.60;99.90
41720;DHT22;27405;53.316;-6.294;2023-04-25T08:29:44;7.60;99.90
41720;DHT22;27405;53.316;-6.294;2023-04-25T08:32:09;7.60;99.90
41720;DHT22;27405;53.316;-6.294;2023-04-25T08:34:35;7.60;99.90
41720;DHT22;27405;53.316;-6.294;2023-04-25T08:37:02;7.70;99.90
41720;DHT22;27405;53.316;-6.294;2023-04-25T08:39:29;7.70;99.90
41720;DHT22;27405;53.316;-6.294;2023-04-25T08:41:56;7.80;99.90
41720;DHT22;27405;53.316;-6.294;2023-04-25T08:44:22;8.00;99.90
41720;DHT22;27405;53.316;-6.294;2023-04-25T08:46:49;8.20;99.90
41720;DHT22;27405;53.316;-6.294;2023-04-25T08:49:17;8.30;99.90
41720;DHT22;27405;53.316;-6.294;2023-04-25T08:51:44;8.30;99.90
41720;DHT22;27405;53.316;-6.294;2023-04-25T08:54:13;8.40;99.90
41720;DHT22;27405;53.316;-6.294;2023-04-25T08:56:41;8.50;99.90
41720;DHT22;27405;53.316;-6.294;2023-04-25T08:59:10;8.50;99.90
41720;DHT22;27405;53.316;-6.294;2023-04-25T09:01:36;8.60;99.90
41720;DHT22;27405;53.316;-6.294;2023-04-25T09:04:02;8.70;99.90
41720;DHT22;27405;53.316;-6.294;2023-04-25T09:06:29;8.90;99.90
41720;DHT22;27405;53.316;-6.294;2023-04-25T09:09:02;9.00;99.90
41720;DHT22;27405;53.316;-6.294;2023-04-25T09:11:29;9.10;99.90
41720;DHT22;27405;53.316;-6.294;2023-04-25T09:19:24;9.40;99.90
41720;DHT22;27405;53.316;-6.294;2023-04-25T09:21:51;9.50;99.90
41720;DHT22;27405;53.316;-6.294;2023-04-25T09:24:40;9.60;99.90
41720;DHT22;27405;53.316;-6.294;2023-04-25T09:27:08;9.60;99.90
41720;DHT22;27405;53.316;-6.294;2023-04-25T09:29:35;9.70;99.90
41720;DHT22;27405;53.316;-6.294;2023-04-25T09:34:43;9.80;99.90
41720;DHT22;27405;53.316;-6.294;2023-04-25T09:37:10;9.90;99.90
41720;DHT22;27405;53.316;-6.294;2023-04-25T09:39:37;10.10;99.90
41720;DHT22;27405;53.316;-6.294;2023-04-25T09:42:04;10.20;99.90
41720;DHT22;27405;53.316;-6.294;2023-04-25T09:44:30;10.40;99.90
41720;DHT22;27405;53.316;-6.294;2023-04-25T09:46:56;10.50;99.90
41720;DHT22;27405;53.316;-6.294;2023-04-25T09:49:22;10.70;99.90
41720;DHT22;27405;53.316;-6.294;2023-04-25T09:51:55;10.80;99.90
41720;DHT22;27405;53.316;-6.294;2023-04-25T09:54:22;11.00;99.90
41720;DHT22;27405;53.316;-6.294;2023-04-25T09:56:51;11.10;99.90
41720;DHT22;27405;53.316;-6.294;2023-04-25T09:59:20;11.20;99.90
41720;DHT22;27405;53.316;-6.294;2023-04-25T10:01:48;11.40;99.90
41720;DHT22;27405;53.316;-6.294;2023-04-25T10:04:24;11.40;99.90
41720;DHT22;27405;53.316;-6.294;2023-04-25T10:06:52;11.50;99.90
41720;DHT22;27405;53.316;-6.294;2023-04-25T10:09:25;11.70;99.90
41720;DHT22;27405;53.316;-6.294;2023-04-25T10:11:51;11.80;99.90
41720;DHT22;27405;53.316;-6.294;2023-04-25T10:14:18;11.80;99.90
41720;DHT22;27405;53.316;-6.294;2023-04-25T10:16:45;11.90;99.90
41720;DHT22;27405;53.316;-6.294;2023-04-25T10:19:11;12.00;99.90
41720;DHT22;27405;53.316;-6.294;2023-04-25T10:21:50;12.20;99.90
41720;DHT22;27405;53.316;-6.294;2023-04-25T10:24:16;12.30;99.90
41720;DHT22;27405;53.316;-6.294;2023-04-25T10:26:43;12.40;99.90
41720;DHT22;27405;53.316;-6.294;2023-04-25T10:29:09;12.40;99.90
41720;DHT22;27405;53.316;-6.294;2023-04-25T10:31:45;12.50;99.90
41720;DHT22;27405;53.316;-6.294;2023-04-25T10:34:12;12.50;99.90
41720;DHT22;27405;53.316;-6.294;2023-04-25T10:36:38;12.60;99.90
41720;DHT22;27405;53.316;-6.294;2023-04-25T10:39:05;12.50;99.90
41720;DHT22;27405;53.316;-6.294;2023-04-25T10:41:51;12.50;99.90
41720;DHT22;27405;53.316;-6.294;2023-04-25T10:44:17;12.50;99.90
41720;DHT22;27405;53.316;-6.294;2023-04-25T10:46:44;12.50;99.90
41720;DHT22;27405;53.316;-6.294;2023-04-25T10:49:11;12.60;99.90
41720;DHT22;27405;53.316;-6.294;2023-04-25T10:55:13;12.70;99.80
41720;DHT22;27405;53.316;-6.294;2023-04-25T10:57:43;12.80;99.40
41720;DHT22;27405;53.316;-6.294;2023-04-25T11:00:18;12.80;99.30
41720;DHT22;27405;53.316;-6.294;2023-04-25T11:02:52;12.90;99.00
41720;DHT22;27405;53.316;-6.294;2023-04-25T11:05:34;12.90;98.80
41720;DHT22;27405;53.316;-6.294;2023-04-25T11:08:00;12.90;98.60
41720;DHT22;27405;53.316;-6.294;2023-04-25T11:10:31;12.90;98.50
41720;DHT22;27405;53.316;-6.294;2023-04-25T11:12:58;12.90;98.30
41720;DHT22;27405;53.316;-6.294;2023-04-25T11:15:24;12.90;98.20
41720;DHT22;27405;53.316;-6.294;2023-04-25T11:17:53;13.00;97.80
41720;DHT22;27405;53.316;-6.294;2023-04-25T11:20:19;13.00;97.60
41720;DHT22;27405;53.316;-6.294;2023-04-25T11:22:46;13.00;97.30
41720;DHT22;27405;53.316;-6.294;2023-04-25T11:25:14;13.00;96.70
41720;DHT22;27405;53.316;-6.294;2023-04-25T11:27:52;13.00;96.20
41720;DHT22;27405;53.316;-6.294;2023-04-25T11:30:19;13.10;96.00
41720;DHT22;27405;53.316;-6.294;2023-04-25T11:32:45;13.10;95.80
41720;DHT22;27405;53.316;-6.294;2023-04-25T11:35:12;13.10;95.60
41720;DHT22;27405;53.316;-6.294;2023-04-25T11:37:41;13.10;95.50
41720;DHT22;27405;53.316;-6.294;2023-04-25T11:40:07;13.10;95.40
41720;DHT22;27405;53.316;-6.294;2023-04-25T11:42:37;13.20;95.30
41720;DHT22;27405;53.316;-6.294;2023-04-25T11:45:03;13.10;95.50
41720;DHT22;27405;53.316;-6.294;2023-04-25T11:47:31;13.20;95.40
41720;DHT22;27405;53.316;-6.294;2023-04-25T11:50:01;13.30;95.20
41720;DHT22;27405;53.316;-6.294;2023-04-25T11:52:38;13.30;95.00
41720;DHT22;27405;53.316;-6.294;2023-04-25T11:55:06;13.30;94.90
41720;DHT22;27405;53.316;-6.294;2023-04-25T11:57:33;13.30;94.80
41720;DHT22;27405;53.316;-6.294;2023-04-25T12:00:11;13.30;94.70
41720;DHT22;27405;53.316;-6.294;2023-04-25T12:02:42;13.40;94.50
41720;DHT22;27405;53.316;-6.294;2023-04-25T12:05:09;13.50;93.60
41720;DHT22;27405;53.316;-6.294;2023-04-25T12:07:35;13.50;93.50
41720;DHT22;27405;53.316;-6.294;2023-04-25T12:10:10;13.50;93.30
41720;DHT22;27405;53.316;-6.294;2023-04-25T12:12:37;13.50;92.70
41720;DHT22;27405;53.316;-6.294;2023-04-25T12:15:10;13.40;92.50
41720;DHT22;27405;53.316;-6.294;2023-04-25T12:17:38;13.40;92.20
41720;DHT22;27405;53.316;-6.294;2023-04-25T12:20:14;13.30;92.20
41720;DHT22;27405;53.316;-6.294;2023-04-25T12:22:45;13.20;92.00
41720;DHT22;27405;53.316;-6.294;2023-04-25T12:25:57;13.20;92.10
41720;DHT22;27405;53.316;-6.294;2023-04-25T12:28:14;13.20;92.00
41720;DHT22;27405;53.316;-6.294;2023-04-25T12:31:07;13.30;92.00
41720;DHT22;27405;53.316;-6.294;2023-04-25T12:33:35;13.20;91.90
41720;DHT22;27405;53.316;-6.294;2023-04-25T12:36:03;13.30;92.10
41720;DHT22;27405;53.316;-6.294;2023-04-25T12:38:36;13.30;92.10
41720;DHT22;27405;53.316;-6.294;2023-04-25T12:41:02;13.40;92.10
41720;DHT22;27405;53.316;-6.294;2023-04-25T12:43:28;13.50;92.50
41720;DHT22;27405;53.316;-6.294;2023-04-25T12:45:55;13.60;92.40
41720;DHT22;27405;53.316;-6.294;2023-04-25T12:48:21;13.70;92.20
41720;DHT22;27405;53.316;-6.294;2023-04-25T12:50:48;13.80;91.90
41720;DHT22;27405;53.316;-6.294;2023-04-25T12:53:23;13.90;91.50
41720;DHT22;27405;53.316;-6.294;2023-04-25T12:55:50;14.00;91.00
41720;DHT22;27405;53.316;-6.294;2023-04-25T12:58:17;14.10;90.80
41720;DHT22;27405;53.316;-6.294;2023-04-25T13:00:44;14.10;90.40
41720;DHT22;27405;53.316;-6.294;2023-04-25T13:03:10;14.20;90.50
41720;DHT22;27405;53.316;-6.294;2023-04-25T13:05:39;14.30;90.00
41720;DHT22;27405;53.316;-6.294;2023-04-25T13:08:05;14.40;89.60
41720;DHT22;27405;53.316;-6.294;2023-04-25T13:10:31;14.60;89.50
41720;DHT22;27405;53.316;-6.294;2023-04-25T13:12:59;14.70;88.80
41720;DHT22;27405;53.316;-6.294;2023-04-25T13:15:24;14.70;88.40
41720;DHT22;27405;53.316;-6.294;2023-04-25T13:17:50;14.70;88.20
41720;DHT22;27405;53.316;-6.294;2023-04-25T13:20:16;14.70;87.80
41720;DHT22;27405;53.316;-6.294;2023-04-25T13:22:42;14.70;87.40
41720;DHT22;27405;53.316;-6.294;2023-04-25T13:25:08;14.60;87.60
41720;DHT22;27405;53.316;-6.294;2023-04-25T13:27:36;14.50;87.80
41720;DHT22;27405;53.316;-6.294;2023-04-25T13:30:04;14.40;87.70
41720;DHT22;27405;53.316;-6.294;2023-04-25T13:32:36;14.40;87.80
41720;DHT22;27405;53.316;-6.294;2023-04-25T13:35:04;14.30;88.40
41720;DHT22;27405;53.316;-6.294;2023-04-25T13:37:30;14.50;88.80
41720;DHT22;27405;53.316;-6.294;2023-04-25T13:40:02;14.70;88.80
41720;DHT22;27405;53.316;-6.294;2023-04-25T13:42:30;14.90;88.60
41720;DHT22;27405;53.316;-6.294;2023-04-25T13:44:56;15.10;88.20
41720;DHT22;27405;53.316;-6.294;2023-04-25T13:47:22;15.10;88.10
41720;DHT22;27405;53.316;-6.294;2023-04-25T13:49:51;15.10;87.50
41720;DHT22;27405;53.316;-6.294;2023-04-25T13:52:17;15.00;87.00
41720;DHT22;27405;53.316;-6.294;2023-04-25T13:54:43;15.00;87.50
41720;DHT22;27405;53.316;-6.294;2023-04-25T13:57:09;15.00;87.60
41720;DHT22;27405;53.316;-6.294;2023-04-25T13:59:36;15.00;86.90
41720;DHT22;27405;53.316;-6.294;2023-04-25T14:02:02;15.00;86.50
41720;DHT22;27405;53.316;-6.294;2023-04-25T14:04:28;15.00;85.70
41720;DHT22;27405;53.316;-6.294;2023-04-25T14:06:54;14.90;84.70
41720;DHT22;27405;53.316;-6.294;2023-04-25T14:09:20;14.80;84.10
41720;DHT22;27405;53.316;-6.294;2023-04-25T14:11:51;14.60;84.00
41720;DHT22;27405;53.316;-6.294;2023-04-25T14:14:18;14.60;83.80
41720;DHT22;27405;53.316;-6.294;2023-04-25T14:16:44;14.50;83.60
41720;DHT22;27405;53.316;-6.294;2023-04-25T14:19:10;14.40;83.70
41720;DHT22;27405;53.316;-6.294;2023-04-25T14:21:35;14.40;83.70
41720;DHT22;27405;53.316;-6.294;2023-04-25T14:24:01;14.30;83.60
41720;DHT22;27405;53.316;-6.294;2023-04-25T14:26:27;14.40;83.60
41720;DHT22;27405;53.316;-6.294;2023-04-25T14:28:53;14.50;83.10
41720;DHT22;27405;53.316;-6.294;2023-04-25T14:31:18;14.70;83.20
41720;DHT22;27405;53.316;-6.294;2023-04-25T14:33:44;15.10;82.90
41720;DHT22;27405;53.316;-6.294;2023-04-25T14:36:10;15.50;82.00
41720;DHT22;27405;53.316;-6.294;2023-04-25T14:38:36;16.00;80.60
41720;DHT22;27405;53.316;-6.294;2023-04-25T14:41:02;16.30;78.80
41720;DHT22;27405;53.316;-6.294;2023-04-25T14:43:28;16.40;77.40
41720;DHT22;27405;53.316;-6.294;2023-04-25T14:45:54;16.40;76.10
41720;DHT22;27405;53.316;-6.294;2023-04-25T14:48:19;16.40;75.50
41720;DHT22;27405;53.316;-6.294;2023-04-25T14:50:46;16.30;75.40
41720;DHT22;27405;53.316;-6.294;2023-04-25T14:53:12;16.10;74.70
41720;DHT22;27405;53.316;-6.294;2023-04-25T14:55:38;15.90;74.40
41720;DHT22;27405;53.316;-6.294;2023-04-25T14:58:04;15.70;74.10
41720;DHT22;27405;53.316;-6.294;2023-04-25T15:00:30;15.50;74.10
41720;DHT22;27405;53.316;-6.294;2023-04-25T15:02:57;15.30;74.10
41720;DHT22;27405;53.316;-6.294;2023-04-25T15:05:23;15.20;74.30
41720;DHT22;27405;53.316;-6.294;2023-04-25T15:07:49;15.10;74.80
41720;DHT22;27405;53.316;-6.294;2023-04-25T15:10:16;15.00;74.90
41720;DHT22;27405;53.316;-6.294;2023-04-25T15:12:42;14.90;74.90
41720;DHT22;27405;53.316;-6.294;2023-04-25T15:15:09;14.80;75.00
41720;DHT22;27405;53.316;-6.294;2023-04-25T15:17:40;14.80;75.50
41720;DHT22;27405;53.316;-6.294;2023-04-25T15:20:07;14.70;75.30
41720;DHT22;27405;53.316;-6.294;2023-04-25T15:22:35;14.70;75.70
41720;DHT22;27405;53.316;-6.294;2023-04-25T15:25:01;14.60;75.30
41720;DHT22;27405;53.316;-6.294;2023-04-25T15:27:27;14.50;75.20
41720;DHT22;27405;53.316;-6.294;2023-04-25T15:29:53;14.40;75.20
41720;DHT22;27405;53.316;-6.294;2023-04-25T15:32:18;14.30;75.10
41720;DHT22;27405;53.316;-6.294;2023-04-25T15:34:45;14.20;75.20